createdAt,value
2022-11-16T00:00:23.514Z,14.23
2022-11-16T00:02:52.197Z,14.23
2022-11-16T00:05:28.001Z,13.63
2022-11-16T00:07:57.879Z,14.05
2022-11-16T00:10:26.002Z,14.50
2022-11-16T00:12:54.124Z,14.40
2022-11-16T00:15:24.010Z,14.20
2022-11-16T00:17:52.479Z,14.07
2022-11-16T00:20:20.790Z,16.75
2022-11-16T00:22:49.963Z,19.13
2022-11-16T00:25:22.744Z,20.85
2022-11-16T00:28:02.123Z,24.13
2022-11-16T00:30:30.281Z,23.55
2022-11-16T00:33:06.936Z,23.85
2022-11-16T00:35:40.083Z,21.17
2022-11-16T00:38:08.748Z,20.23
2022-11-16T00:40:40.248Z,20.27
2022-11-16T00:43:08.640Z,19.85
2022-11-16T00:45:39.925Z,19.55
2022-11-16T00:48:08.111Z,18.65
2022-11-16T00:50:36.786Z,18.35
2022-11-16T00:53:06.957Z,18.23
2022-11-16T00:55:35.015Z,16.27
2022-11-16T00:58:04.333Z,14.15
2022-11-16T01:00:32.239Z,14.20
2022-11-16T01:03:02.658Z,15.05
2022-11-16T01:05:31.046Z,14.33
2022-11-16T01:07:59.189Z,15.02
2022-11-16T01:10:34.373Z,14.35
2022-11-16T01:13:06.982Z,15.65
2022-11-16T01:18:03.213Z,16.00
2022-11-16T01:20:32.062Z,16.50
2022-11-16T01:23:00.193Z,17.92
2022-11-16T01:25:29.610Z,19.10
2022-11-16T01:27:57.890Z,19.67
2022-11-16T01:30:48.704Z,17.77
2022-11-16T01:33:16.822Z,18.33
2022-11-16T01:35:45.142Z,17.02
2022-11-16T01:38:15.622Z,16.00
2022-11-16T01:40:44.093Z,16.23
2022-11-16T01:43:20.682Z,15.55
2022-11-16T01:45:49.048Z,15.55
2022-11-16T01:48:24.943Z,14.93
2022-11-16T01:50:54.140Z,13.13
2022-11-16T01:53:22.502Z,14.40
2022-11-16T01:55:57.151Z,12.88
2022-11-16T01:58:30.921Z,13.18
2022-11-16T02:01:07.465Z,13.23
2022-11-16T02:03:45.385Z,12.13
2022-11-16T02:06:17.011Z,12.40
2022-11-16T02:09:34.877Z,12.90
2022-11-16T02:13:35.383Z,12.35
2022-11-16T02:16:52.643Z,11.65
2022-11-16T02:19:51.821Z,12.82
2022-11-16T02:22:27.796Z,11.30
2022-11-16T02:25:05.352Z,12.18
2022-11-16T02:27:52.780Z,12.88
2022-11-16T02:30:20.815Z,12.95
2022-11-16T02:32:59.224Z,12.20
2022-11-16T02:35:33.397Z,12.50
2022-11-16T02:38:09.951Z,12.55
2022-11-16T02:40:45.625Z,12.30
2022-11-16T02:43:32.648Z,11.45
2022-11-16T02:46:05.505Z,11.15
2022-11-16T02:48:39.384Z,11.65
2022-11-16T02:51:08.672Z,11.90
2022-11-16T02:53:42.742Z,12.07
2022-11-16T02:56:13.933Z,12.18
2022-11-16T02:58:42.804Z,11.02
2022-11-16T03:01:21.783Z,12.20
2022-11-16T03:03:53.048Z,11.55
2022-11-16T03:06:30.112Z,12.15
2022-11-16T03:09:15.362Z,12.02
2022-11-16T03:12:03.690Z,12.10
2022-11-16T03:14:47.248Z,12.80
2022-11-16T03:17:22.890Z,12.32
2022-11-16T03:20:02.515Z,12.05
2022-11-16T03:22:42.472Z,12.32
2022-11-16T03:25:14.632Z,12.27
2022-11-16T03:28:05.848Z,12.18
2022-11-16T03:30:47.903Z,13.07
2022-11-16T03:33:20.768Z,12.88
2022-11-16T03:38:35.916Z,13.13
2022-11-16T03:41:07.442Z,12.55
2022-11-16T03:43:36.360Z,13.00
2022-11-16T03:46:05.989Z,13.55
2022-11-16T03:48:36.082Z,14.10
2022-11-16T03:51:13.673Z,15.10
2022-11-16T03:53:52.780Z,13.60
2022-11-16T03:56:21.192Z,14.43
2022-11-16T03:59:17.933Z,14.07
2022-11-16T04:01:46.780Z,13.73
2022-11-16T04:04:36.321Z,13.43
2022-11-16T04:10:13.404Z,13.57
2022-11-16T04:13:02.263Z,14.88
2022-11-16T04:15:48.765Z,16.00
2022-11-16T04:18:35.460Z,15.30
2022-11-16T04:21:24.186Z,16.00
2022-11-16T04:24:10.204Z,17.27
2022-11-16T04:26:57.436Z,16.02
2022-11-16T04:29:25.657Z,16.65
2022-11-16T04:32:12.214Z,16.23
2022-11-16T04:34:58.668Z,13.73
2022-11-16T04:37:45.623Z,14.82
2022-11-16T04:40:16.695Z,14.40
2022-11-16T04:43:00.361Z,13.68
2022-11-16T04:45:51.266Z,14.15
2022-11-16T04:48:21.688Z,13.90
2022-11-16T04:50:53.511Z,15.43
2022-11-16T04:53:25.148Z,15.23
2022-11-16T04:56:01.196Z,15.55
2022-11-16T04:58:31.463Z,15.38
2022-11-16T05:01:00.392Z,15.10
2022-11-16T05:03:32.659Z,14.85
2022-11-16T05:06:04.089Z,14.68
2022-11-16T05:08:33.339Z,14.45
2022-11-16T05:11:01.987Z,13.73
2022-11-16T05:13:30.653Z,14.77
2022-11-16T05:16:01.677Z,15.18
2022-11-16T09:14:59.345Z,26.67
2022-11-16T09:17:28.007Z,25.55
2022-11-16T09:19:57.064Z,23.98
2022-11-16T09:22:25.997Z,24.30
2022-11-16T09:24:58.278Z,24.38
2022-11-16T09:27:30.755Z,24.35
2022-11-16T09:30:02.329Z,22.63
2022-11-16T09:32:30.527Z,24.58
2022-11-16T09:35:02.118Z,22.73
2022-11-16T09:37:43.394Z,29.67
2022-11-16T09:40:14.514Z,23.67
2022-11-16T09:43:07.157Z,25.20
2022-11-16T09:45:38.421Z,26.55
2022-11-16T09:48:17.854Z,25.70
2022-11-16T09:51:25.308Z,26.20
2022-11-16T09:54:08.394Z,26.92
2022-11-16T09:56:48.025Z,29.58
2022-11-16T09:59:26.651Z,27.85
2022-11-16T10:02:21.484Z,30.70
2022-11-16T10:05:12.892Z,29.02
2022-11-16T10:07:50.859Z,27.02
2022-11-16T10:10:45.397Z,27.90
2022-11-16T10:13:43.656Z,25.73
2022-11-16T10:16:46.859Z,27.35
2022-11-16T10:21:16.762Z,29.83
2022-11-16T10:24:32.477Z,28.05
2022-11-16T10:28:12.084Z,30.52
2022-11-16T10:31:42.565Z,29.35
2022-11-16T10:38:34.611Z,34.20
2022-11-16T10:41:39.362Z,25.65
2022-11-16T10:44:44.520Z,27.17
2022-11-16T10:47:23.414Z,27.00
2022-11-16T10:50:05.387Z,29.52
2022-11-16T10:54:00.950Z,27.08
2022-11-16T10:57:00.980Z,33.05
2022-11-16T10:59:48.707Z,28.98
2022-11-16T11:02:38.014Z,27.77
2022-11-16T11:05:25.967Z,27.33
2022-11-16T11:08:12.532Z,31.90
2022-11-16T11:10:56.678Z,44.35
2022-11-16T11:13:30.153Z,51.03
2022-11-16T11:16:17.914Z,60.95
2022-11-16T11:18:57.521Z,35.80
2022-11-16T11:21:26.099Z,36.92
2022-11-16T11:24:10.596Z,50.03
2022-11-16T11:26:51.314Z,36.47
2022-11-16T11:29:27.800Z,41.78
2022-11-16T11:32:06.020Z,34.65
2022-11-16T11:34:40.328Z,31.40
2022-11-16T11:37:21.129Z,34.08
2022-11-16T11:40:04.837Z,31.38
2022-11-16T11:42:34.011Z,29.52
2022-11-16T11:45:13.693Z,29.60
2022-11-16T11:48:15.312Z,67.05
2022-11-16T11:51:17.071Z,31.55
2022-11-16T11:53:58.638Z,33.58
2022-11-16T11:56:39.011Z,29.23
2022-11-16T11:59:14.072Z,26.10
2022-11-16T12:02:19.639Z,29.40
2022-11-16T12:05:15.835Z,34.28
2022-11-16T12:07:52.563Z,32.78
2022-11-16T12:10:28.147Z,36.75
2022-11-16T12:13:27.660Z,36.28
2022-11-16T12:16:18.105Z,37.88
2022-11-16T12:19:13.155Z,34.30
2022-11-16T12:22:06.150Z,32.35
2022-11-16T12:24:46.068Z,30.88
2022-11-16T12:27:50.541Z,30.35
2022-11-16T12:30:26.569Z,33.13
2022-11-16T12:33:13.742Z,30.45
2022-11-16T12:35:55.001Z,30.17
2022-11-16T12:38:42.168Z,30.67
2022-11-16T12:41:35.759Z,31.25
2022-11-16T12:44:12.094Z,32.72
2022-11-16T12:47:13.195Z,32.00
2022-11-16T12:50:35.439Z,32.45
2022-11-16T12:55:59.210Z,32.50
2022-11-16T12:58:53.057Z,34.10
2022-11-16T13:01:30.993Z,35.70
2022-11-16T13:04:06.615Z,34.72
2022-11-16T13:06:41.632Z,33.70
2022-11-16T13:09:16.697Z,34.45
2022-11-16T13:11:56.274Z,34.03
2022-11-16T13:16:58.712Z,32.47
2022-11-16T13:19:32.496Z,34.05
2022-11-16T13:22:08.003Z,31.50
2022-11-16T13:24:59.057Z,32.67
2022-11-16T13:27:39.865Z,33.97
2022-11-16T13:30:23.936Z,34.42
2022-11-16T13:33:14.612Z,34.50
2022-11-16T13:35:43.164Z,35.23
2022-11-16T13:38:14.690Z,36.22
2022-11-16T13:40:46.046Z,35.43
2022-11-16T13:43:17.794Z,35.70
2022-11-16T13:46:00.059Z,37.95
2022-11-16T13:48:38.429Z,36.83
2022-11-16T13:51:11.155Z,35.72
2022-11-16T13:56:49.228Z,36.83
2022-11-16T13:59:17.488Z,37.92
2022-11-16T14:01:59.604Z,38.55
2022-11-16T14:04:42.275Z,47.10
2022-11-16T14:07:37.302Z,46.45
2022-11-16T14:10:06.231Z,51.10
2022-11-16T17:00:50.527Z,41.28
2022-11-16T17:03:20.812Z,55.35
2022-11-16T17:05:49.247Z,59.10
2022-11-16T17:08:17.096Z,48.72
2022-11-16T17:10:45.242Z,46.75
2022-11-16T17:13:13.353Z,48.45
2022-11-16T17:22:56.473Z,43.58
2022-11-16T17:25:28.307Z,40.95
2022-11-16T17:27:56.377Z,35.13
2022-11-16T17:30:24.017Z,30.95
2022-11-16T17:32:51.871Z,31.98
2022-11-16T17:35:19.656Z,28.15
2022-11-16T17:37:48.812Z,27.65
2022-11-16T17:40:17.912Z,30.70
2022-11-16T17:42:46.301Z,54.55
2022-11-16T17:45:14.089Z,25.00
2022-11-16T17:47:42.100Z,23.92
2022-11-16T17:50:10.256Z,24.95
2022-11-16T17:52:41.076Z,25.27
2022-11-16T17:55:09.309Z,29.40
2022-11-16T17:57:36.968Z,28.08
2022-11-16T18:00:05.232Z,30.95
2022-11-16T18:02:36.093Z,26.08
2022-11-16T18:05:03.915Z,27.50
2022-11-16T18:07:33.703Z,32.63
2022-11-16T18:10:01.671Z,23.52
2022-11-16T18:12:29.593Z,26.45
2022-11-16T18:15:26.471Z,27.02
2022-11-16T18:17:46.734Z,22.10
2022-11-16T18:20:14.567Z,23.58
2022-11-16T18:22:42.347Z,22.25
2022-11-16T18:25:10.013Z,21.92
2022-11-16T18:27:38.073Z,27.95
2022-11-16T18:30:07.673Z,21.40
2022-11-16T18:32:37.218Z,23.58
2022-11-16T18:35:10.126Z,25.13
2022-11-16T18:37:39.255Z,24.08
2022-11-16T18:40:08.392Z,26.45
2022-11-16T18:42:36.942Z,23.88
2022-11-16T18:45:05.085Z,23.85
2022-11-16T18:47:35.333Z,22.95
2022-11-16T18:50:03.146Z,22.98
2022-11-16T18:52:31.289Z,23.30
2022-11-16T18:54:59.062Z,22.73
2022-11-16T18:57:27.447Z,21.67
2022-11-16T18:59:55.210Z,22.83
2022-11-16T19:02:23.264Z,26.45
2022-11-16T19:04:51.530Z,23.10
2022-11-16T19:07:19.864Z,23.52
2022-11-16T19:09:47.987Z,22.83
2022-11-16T19:12:15.868Z,23.67
2022-11-16T19:14:43.747Z,23.98
2022-11-16T19:17:11.549Z,23.98
2022-11-16T19:19:40.820Z,21.70
2022-11-16T19:22:08.908Z,21.65
2022-11-16T19:24:37.481Z,21.60
2022-11-16T19:27:05.402Z,24.35
2022-11-16T19:29:33.314Z,33.08
2022-11-16T19:32:01.117Z,43.10
2022-11-16T19:34:33.322Z,66.22
2022-11-16T19:37:01.481Z,65.43
2022-11-16T19:39:29.395Z,62.65
2022-11-16T19:41:57.260Z,48.80
2022-11-16T19:44:25.174Z,49.50
2022-11-16T19:46:54.716Z,57.78
2022-11-16T19:49:22.711Z,35.85
2022-11-16T19:51:50.571Z,34.53
2022-11-16T19:54:19.816Z,37.05
2022-11-16T19:56:54.673Z,32.92
2022-11-16T19:59:23.065Z,26.95
2022-11-16T20:01:51.118Z,27.02
2022-11-16T20:04:19.104Z,23.63
2022-11-16T20:06:47.566Z,14.05
2022-11-16T20:09:15.720Z,15.55
2022-11-16T20:11:45.965Z,17.30
2022-11-16T20:14:15.151Z,13.85
2022-11-16T20:16:46.670Z,16.40
2022-11-16T20:19:15.339Z,18.13
2022-11-16T20:21:43.360Z,19.08
2022-11-16T20:24:12.911Z,26.05
2022-11-16T20:26:42.691Z,24.63
2022-11-16T20:29:12.507Z,38.25
2022-11-16T20:31:43.049Z,31.10
2022-11-16T20:34:15.727Z,37.67
2022-11-16T20:36:47.323Z,39.17
2022-11-16T20:39:16.338Z,38.95
2022-11-16T20:41:44.960Z,44.20
2022-11-16T20:44:16.640Z,36.03
2022-11-16T20:46:45.370Z,35.95
2022-11-16T20:49:13.434Z,33.42
2022-11-16T20:51:42.135Z,36.70
2022-11-16T20:54:10.336Z,47.35
2022-11-16T20:56:38.180Z,54.33
2022-11-16T20:59:06.184Z,58.50
2022-11-16T21:01:34.094Z,49.53
2022-11-16T21:04:04.126Z,46.67
2022-11-16T21:06:32.853Z,43.00
2022-11-16T21:09:00.919Z,47.58
2022-11-16T21:11:30.240Z,58.03
2022-11-16T21:14:16.605Z,59.85
2022-11-16T21:16:44.625Z,57.58
2022-11-16T21:19:12.784Z,57.58
2022-11-16T21:21:41.477Z,58.38
2022-11-16T21:24:09.670Z,65.22
2022-11-16T21:26:37.695Z,71.68
2022-11-16T21:29:05.733Z,70.63
2022-11-16T21:31:34.978Z,72.65
2022-11-16T21:34:02.808Z,59.85
2022-11-16T21:36:31.449Z,63.92
2022-11-16T21:38:59.595Z,59.22
2022-11-16T21:43:58.377Z,59.05
2022-11-16T21:46:26.599Z,50.97
2022-11-16T21:48:56.745Z,51.55
2022-11-16T21:51:44.069Z,46.90
2022-11-16T21:54:11.815Z,41.50
2022-11-16T21:56:40.780Z,44.90
2022-11-16T21:59:08.460Z,42.40
2022-11-16T22:01:59.497Z,34.05
2022-11-16T22:04:47.130Z,32.67
2022-11-16T22:07:34.154Z,35.47
2022-11-16T22:10:03.039Z,36.47
2022-11-16T22:12:30.832Z,32.45
2022-11-16T22:14:58.927Z,35.03
2022-11-16T22:17:28.885Z,41.15
2022-11-16T22:20:00.462Z,32.50
2022-11-16T22:22:28.303Z,36.08
2022-11-16T22:24:56.373Z,25.38
2022-11-16T22:27:24.399Z,20.90
2022-11-16T22:29:52.604Z,18.63
2022-11-16T22:32:20.258Z,18.10
2022-11-16T22:34:48.417Z,17.45
2022-11-16T22:37:16.177Z,17.73
2022-11-16T22:39:44.409Z,17.83
2022-11-16T22:42:12.207Z,18.80
2022-11-16T22:44:40.474Z,17.35
2022-11-16T22:47:09.622Z,19.27
2022-11-16T22:49:37.626Z,16.73
2022-11-16T22:52:05.597Z,17.65
2022-11-16T22:54:37.974Z,18.92
2022-11-16T22:57:30.494Z,18.63
2022-11-16T22:59:58.264Z,19.48
2022-11-16T23:02:26.298Z,20.58
2022-11-16T23:04:54.106Z,21.23
